createdAt,value
2017-12-01T00:02:07.925Z,78.37
2017-12-01T00:04:34.375Z,82.03
2017-12-01T00:07:00.902Z,86.30
2017-12-01T00:09:27.302Z,74.67
2017-12-01T00:11:53.796Z,77.33
2017-12-01T00:14:20.212Z,74.87
2017-12-01T00:16:46.658Z,67.43
2017-12-01T00:19:13.095Z,75.23
2017-12-01T00:21:40.400Z,78.03
2017-12-01T00:24:08.779Z,70.93
2017-12-01T00:26:35.974Z,65.73
2017-12-01T00:29:02.691Z,64.50
2017-12-01T00:31:29.221Z,78.43
2017-12-01T00:33:55.678Z,75.40
2017-12-01T00:36:22.154Z,71.30
2017-12-01T00:38:48.661Z,72.67
2017-12-01T00:41:15.083Z,77.60
2017-12-01T00:43:41.562Z,68.87
2017-12-01T00:46:08.511Z,73.07
2017-12-01T00:48:35.730Z,82.23
2017-12-01T00:51:02.324Z,69.27
2017-12-01T00:53:28.838Z,72.30
2017-12-01T00:55:55.272Z,73.57
2017-12-01T00:58:22.471Z,68.80
2017-12-01T01:00:48.933Z,79.40
2017-12-01T01:03:15.410Z,81.83
2017-12-01T01:05:41.842Z,78.53
2017-12-01T01:08:09.606Z,76.73
2017-12-01T01:10:36.227Z,67.47
2017-12-01T01:13:03.480Z,48.00
2017-12-01T01:15:29.934Z,62.73
2017-12-01T01:17:56.400Z,61.73
2017-12-01T01:20:22.891Z,63.97
2017-12-01T01:22:49.720Z,65.73
2017-12-01T01:25:23.119Z,69.10
2017-12-01T01:27:50.330Z,66.80
2017-12-01T01:30:16.755Z,70.27
2017-12-01T01:32:43.211Z,60.87
2017-12-01T01:35:09.651Z,59.10
2017-12-01T01:37:36.080Z,58.33
2017-12-01T01:40:02.759Z,63.23
2017-12-01T01:42:29.221Z,65.83
2017-12-01T01:44:55.655Z,66.57
2017-12-01T01:47:22.118Z,69.23
2017-12-01T01:49:49.320Z,80.83
2017-12-01T01:52:15.790Z,70.77
2017-12-01T01:54:43.012Z,69.23
2017-12-01T01:57:09.474Z,77.97
2017-12-01T01:59:35.915Z,76.63
2017-12-01T02:02:02.698Z,83.40
2017-12-01T02:04:29.258Z,72.87
2017-12-01T02:06:56.428Z,62.33
2017-12-01T02:09:23.655Z,78.07
2017-12-01T02:11:50.094Z,68.10
2017-12-01T02:14:16.530Z,71.00
2017-12-01T02:16:43.113Z,68.00
2017-12-01T02:19:11.058Z,66.63
2017-12-01T02:21:37.502Z,65.57
2017-12-01T02:24:05.606Z,70.97
2017-12-01T02:26:32.869Z,74.33
2017-12-01T02:28:59.449Z,72.90
2017-12-01T02:31:25.870Z,60.77
2017-12-01T02:33:52.334Z,62.50
2017-12-01T02:36:19.523Z,69.43
2017-12-01T02:38:46.012Z,72.50
2017-12-01T02:41:12.458Z,79.23
2017-12-01T02:43:39.711Z,74.73
2017-12-01T02:46:06.313Z,75.90
2017-12-01T02:48:32.790Z,76.03
2017-12-01T02:50:59.272Z,62.93
2017-12-01T02:53:25.732Z,74.03
2017-12-01T02:55:52.188Z,62.00
2017-12-01T02:58:18.681Z,63.33
2017-12-01T03:00:45.185Z,61.10
2017-12-01T03:03:11.647Z,47.83
2017-12-01T03:05:38.094Z,59.80
2017-12-01T03:08:05.269Z,51.53
2017-12-01T03:10:31.775Z,46.00
2017-12-01T03:12:58.214Z,41.53
2017-12-01T03:15:24.657Z,41.60
2017-12-01T03:17:51.083Z,27.20
2017-12-01T03:20:18.274Z,36.07
2017-12-01T03:22:44.748Z,35.63
2017-12-01T03:25:11.173Z,42.03
2017-12-01T03:27:37.603Z,32.50
2017-12-01T03:30:04.795Z,32.40
2017-12-01T03:32:31.330Z,38.37
2017-12-01T03:34:58.570Z,34.80
2017-12-01T03:37:24.990Z,40.53
2017-12-01T03:39:51.439Z,42.10
2017-12-01T03:42:17.888Z,48.13
2017-12-01T03:44:44.330Z,51.27
2017-12-01T03:47:10.810Z,50.07
2017-12-01T03:49:37.235Z,52.53
2017-12-01T03:52:04.422Z,48.73
2017-12-01T03:54:30.877Z,51.03
2017-12-01T03:56:57.285Z,52.07
2017-12-01T03:59:23.723Z,61.63
2017-12-01T04:01:50.182Z,61.00
2017-12-01T04:04:16.675Z,49.30
2017-12-01T04:06:43.128Z,61.60
2017-12-01T04:09:10.290Z,58.87
2017-12-01T04:11:36.727Z,57.57
2017-12-01T04:14:03.849Z,60.87
2017-12-01T04:16:31.088Z,66.97
2017-12-01T04:18:57.552Z,59.27
2017-12-01T04:21:24.030Z,63.83
2017-12-01T04:23:50.525Z,72.27
2017-12-01T04:26:17.017Z,61.07
2017-12-01T04:28:44.210Z,56.70
2017-12-01T04:31:10.631Z,69.13
2017-12-01T04:33:37.151Z,68.13
2017-12-01T04:36:04.298Z,62.93
2017-12-01T04:38:31.487Z,67.73
2017-12-01T04:40:58.027Z,65.23
2017-12-01T04:43:24.442Z,82.23
2017-12-01T04:45:51.736Z,86.97
2017-12-01T04:48:18.979Z,84.60
2017-12-01T04:50:45.523Z,76.30
2017-12-01T04:53:12.056Z,79.33
2017-12-01T04:55:39.303Z,72.13
2017-12-01T04:58:06.692Z,91.57
2017-12-01T05:00:33.245Z,81.30
2017-12-01T05:02:59.735Z,86.27
2017-12-01T05:05:26.254Z,75.90
2017-12-01T05:07:53.479Z,79.50
2017-12-01T05:10:20.548Z,71.20
2017-12-01T05:12:48.013Z,76.40
2017-12-01T05:15:14.615Z,70.73
2017-12-01T05:17:41.087Z,83.43
2017-12-01T05:20:08.061Z,82.00
2017-12-01T05:22:35.284Z,86.67
2017-12-01T05:25:03.009Z,74.53
2017-12-01T05:27:30.294Z,80.00
2017-12-01T05:29:56.850Z,71.73
2017-12-01T05:32:23.371Z,82.47
2017-12-01T05:34:49.935Z,81.43
2017-12-01T05:37:16.510Z,83.70
2017-12-01T05:39:43.022Z,97.57
2017-12-01T05:42:09.806Z,82.40
2017-12-01T05:44:36.324Z,92.53
2017-12-01T05:47:03.240Z,88.80
2017-12-01T05:49:30.534Z,78.90
2017-12-01T05:51:57.114Z,88.27
2017-12-01T05:54:23.682Z,80.20
2017-12-01T05:56:50.192Z,80.67
2017-12-01T05:59:16.721Z,73.93
2017-12-01T06:01:43.994Z,91.80
2017-12-01T06:04:10.468Z,71.30
2017-12-01T06:06:37.244Z,78.73
2017-12-01T06:09:04.304Z,68.00
2017-12-01T06:11:31.533Z,66.40
2017-12-01T06:13:58.039Z,73.20
2017-12-01T06:16:24.579Z,59.50
2017-12-01T06:18:51.171Z,63.87
2017-12-01T06:21:17.643Z,48.87
2017-12-01T06:23:44.939Z,47.30
2017-12-01T06:26:12.128Z,57.10
2017-12-01T06:28:38.650Z,45.90
2017-12-01T06:31:05.191Z,55.07
2017-12-01T06:33:32.454Z,62.97
2017-12-01T06:35:58.986Z,63.97
2017-12-01T06:38:26.011Z,58.70
2017-12-01T06:40:52.658Z,52.63
2017-12-01T06:43:20.045Z,50.83
2017-12-01T06:45:46.795Z,57.87
2017-12-01T06:48:13.511Z,82.10
2017-12-01T06:50:41.527Z,80.10
2017-12-01T06:53:09.418Z,83.93
2017-12-01T06:55:36.226Z,85.07
2017-12-01T06:58:04.433Z,128.80
2017-12-01T07:00:32.591Z,122.63
2017-12-01T07:03:00.255Z,99.10
2017-12-01T07:05:27.451Z,135.30
2017-12-01T07:07:54.213Z,109.40
2017-12-01T07:10:22.242Z,107.37
2017-12-01T07:12:49.527Z,102.03
2017-12-01T07:15:16.478Z,90.53
2017-12-01T07:17:43.123Z,101.43
2017-12-01T07:20:09.863Z,104.83
2017-12-01T07:22:36.463Z,102.97
2017-12-01T07:25:07.196Z,129.47
2017-12-01T07:27:34.486Z,126.33
2017-12-01T07:30:04.075Z,115.97
2017-12-01T07:32:31.773Z,123.83
2017-12-01T07:34:58.367Z,108.47
2017-12-01T07:37:24.940Z,106.20
2017-12-01T07:39:52.580Z,94.00
2017-12-01T07:42:19.476Z,85.67
2017-12-01T07:44:47.004Z,86.23
2017-12-01T07:47:13.602Z,97.73
2017-12-01T07:49:40.808Z,96.13
2017-12-01T07:52:09.457Z,121.30
2017-12-01T07:54:36.205Z,131.43
2017-12-01T07:57:04.003Z,136.30
2017-12-01T07:59:30.839Z,146.50
2017-12-01T08:01:57.556Z,143.93
2017-12-01T08:04:25.174Z,140.43
2017-12-01T08:06:51.831Z,169.30
2017-12-01T08:09:18.558Z,187.80
2017-12-01T08:11:45.911Z,155.53
2017-12-01T08:14:12.832Z,178.67
2017-12-01T08:16:51.632Z,179.03
2017-12-01T08:19:21.531Z,197.80
2017-12-01T08:22:00.378Z,170.03
2017-12-01T08:24:40.066Z,152.40
2017-12-01T08:27:07.907Z,137.53
2017-12-01T08:29:34.611Z,131.20
2017-12-01T08:32:01.851Z,125.03
2017-12-01T08:34:28.675Z,95.37
2017-12-01T08:36:55.382Z,93.83
2017-12-01T08:39:22.032Z,92.00
2017-12-01T08:41:48.632Z,84.73
2017-12-01T08:44:16.112Z,69.80
2017-12-01T08:46:43.462Z,68.73
2017-12-01T08:49:10.993Z,70.50
2017-12-01T08:51:38.137Z,73.40
2017-12-01T08:54:05.755Z,72.33
2017-12-01T08:56:33.409Z,62.33
2017-12-01T08:59:00.011Z,74.17
2017-12-01T09:01:26.692Z,65.00
2017-12-01T09:03:53.217Z,64.87
2017-12-01T09:06:19.775Z,62.17
2017-12-01T09:08:46.506Z,67.33
2017-12-01T09:11:13.025Z,72.37
2017-12-01T09:13:39.847Z,71.90
2017-12-01T09:16:06.743Z,73.80
2017-12-01T09:18:33.341Z,65.37
2017-12-01T09:21:00.636Z,71.90
2017-12-01T09:23:27.895Z,65.50
2017-12-01T09:25:54.495Z,65.63
2017-12-01T09:28:23.331Z,59.80
2017-12-01T09:30:56.734Z,61.33
2017-12-01T09:33:28.791Z,60.83
2017-12-01T09:35:59.302Z,55.77
2017-12-01T09:38:31.788Z,62.03
2017-12-01T09:41:02.305Z,61.63
2017-12-01T09:43:31.029Z,58.47
2017-12-01T09:45:59.072Z,53.83
2017-12-01T09:48:37.069Z,54.87
2017-12-01T09:51:10.754Z,65.60
2017-12-01T09:53:43.579Z,54.07
2017-12-01T09:56:16.496Z,57.33
2017-12-01T09:58:53.212Z,54.33
2017-12-01T10:01:32.783Z,54.50
2017-12-01T10:06:50.598Z,56.13
2017-12-01T10:09:21.000Z,56.60
2017-12-01T10:12:01.177Z,60.40
2017-12-01T10:14:37.352Z,59.00
2017-12-01T10:17:05.327Z,52.00
2017-12-01T10:19:32.652Z,64.83
2017-12-01T10:21:59.622Z,53.00
2017-12-01T10:24:27.099Z,49.23
2017-12-01T10:26:54.575Z,62.83
2017-12-01T10:29:21.137Z,49.70
2017-12-01T10:31:47.727Z,57.43
2017-12-01T10:34:15.675Z,54.07
2017-12-01T10:36:42.302Z,48.90
2017-12-01T10:39:09.044Z,50.17
2017-12-01T10:41:36.020Z,47.30
2017-12-01T10:44:03.280Z,54.47
2017-12-01T10:46:30.617Z,59.23
2017-12-01T10:48:57.220Z,61.03
2017-12-01T10:51:24.556Z,54.20
2017-12-01T10:53:51.704Z,45.83
2017-12-01T10:56:18.414Z,42.23
2017-12-01T10:58:44.951Z,41.97
2017-12-01T11:01:12.232Z,37.00
2017-12-01T11:03:38.853Z,42.07
2017-12-01T11:06:06.564Z,38.10
2017-12-01T11:08:34.051Z,38.13
2017-12-01T11:11:00.692Z,39.10
2017-12-01T11:13:27.890Z,41.03
2017-12-01T11:15:55.391Z,34.43
2017-12-01T11:18:22.081Z,39.33
2017-12-01T11:20:49.539Z,45.40
2017-12-01T11:23:16.235Z,47.17
2017-12-01T11:25:43.319Z,61.00
2017-12-01T11:28:10.238Z,51.27
2017-12-01T11:30:37.555Z,51.43
2017-12-01T11:33:04.654Z,51.63
2017-12-01T11:35:32.001Z,48.87
2017-12-01T11:37:59.412Z,51.30
2017-12-01T11:40:26.828Z,48.00
2017-12-01T11:43:01.976Z,59.50
2017-12-01T11:45:30.874Z,43.57
2017-12-01T11:47:57.546Z,50.87
2017-12-01T11:50:24.240Z,42.17
2017-12-01T11:52:51.600Z,40.50
2017-12-01T11:55:19.274Z,55.60
2017-12-01T11:57:48.043Z,44.73
2017-12-01T12:00:14.730Z,57.43
2017-12-01T12:02:41.520Z,56.47
2017-12-01T12:05:08.269Z,54.03
2017-12-01T12:07:35.079Z,59.30
2017-12-01T12:10:01.597Z,47.87
2017-12-01T12:12:29.769Z,53.90
2017-12-01T12:14:56.557Z,59.50
2017-12-01T12:17:27.816Z,45.07
2017-12-01T12:19:59.452Z,55.27
2017-12-01T12:22:37.667Z,53.20
2017-12-01T12:25:10.840Z,46.83
2017-12-01T12:27:41.156Z,50.17
2017-12-01T12:30:11.412Z,50.70
2017-12-01T12:32:41.327Z,44.27
2017-12-01T12:35:12.189Z,46.20
2017-12-01T12:37:39.357Z,53.37
2017-12-01T12:40:13.674Z,49.60
2017-12-01T12:42:43.753Z,47.80
2017-12-01T12:45:10.364Z,68.13
2017-12-01T12:47:37.287Z,52.27
2017-12-01T12:50:19.041Z,39.73
2017-12-01T12:52:46.527Z,49.10
2017-12-01T12:55:14.226Z,40.80
2017-12-01T12:57:41.695Z,46.37
2017-12-01T13:00:09.251Z,38.73
2017-12-01T13:02:35.898Z,40.07
2017-12-01T13:05:02.646Z,43.43
2017-12-01T13:07:29.272Z,35.93
2017-12-01T13:09:56.075Z,35.77
2017-12-01T13:12:23.404Z,27.50
2017-12-01T13:14:50.057Z,31.90
2017-12-01T13:17:16.748Z,33.33
2017-12-01T13:19:43.427Z,35.23
2017-12-01T13:22:10.177Z,38.70
2017-12-01T13:24:37.098Z,38.00
2017-12-01T13:27:04.348Z,40.50
2017-12-01T13:29:31.247Z,39.30
2017-12-01T13:31:58.662Z,45.30
2017-12-01T13:34:25.326Z,45.87
2017-12-01T13:36:53.197Z,39.30
2017-12-01T13:39:21.394Z,41.10
2017-12-01T13:41:48.130Z,40.70
2017-12-01T13:44:14.658Z,41.10
2017-12-01T13:46:42.717Z,44.20
2017-12-01T13:49:11.150Z,42.83
2017-12-01T13:51:38.649Z,42.63
2017-12-01T13:54:06.027Z,39.37
2017-12-01T13:56:32.794Z,33.43
2017-12-01T13:59:00.124Z,35.83
2017-12-01T14:01:27.686Z,48.90
2017-12-01T14:03:54.248Z,38.30
2017-12-01T14:06:21.624Z,40.83
2017-12-01T14:08:48.238Z,40.40
2017-12-01T14:11:15.765Z,43.80
2017-12-01T14:13:42.575Z,49.07
2017-12-01T14:16:10.703Z,42.03
2017-12-01T14:18:37.968Z,33.43
2017-12-01T14:21:05.222Z,42.83
2017-12-01T14:23:32.416Z,33.50
2017-12-01T14:25:59.562Z,40.50
2017-12-01T14:28:26.793Z,39.70
2017-12-01T14:30:53.337Z,38.97
2017-12-01T14:33:19.900Z,43.57
2017-12-01T14:35:47.239Z,45.33
2017-12-01T14:38:14.569Z,49.77
2017-12-01T14:40:41.177Z,43.67
2017-12-01T14:43:11.178Z,59.57
2017-12-01T14:45:43.173Z,38.07
2017-12-01T14:48:13.031Z,45.83
2017-12-01T14:50:43.786Z,36.67
2017-12-01T14:53:13.286Z,41.03
2017-12-01T14:55:41.124Z,41.13
2017-12-01T14:58:13.248Z,39.53
2017-12-01T15:00:45.898Z,36.63
2017-12-01T15:03:13.666Z,34.67
2017-12-01T15:05:42.699Z,37.07
2017-12-01T15:08:13.668Z,40.03
2017-12-01T15:10:44.039Z,34.10
2017-12-01T15:13:13.829Z,37.83
2017-12-01T15:15:43.923Z,37.87
2017-12-01T15:18:13.741Z,34.73
2017-12-01T15:20:40.410Z,40.43
2017-12-01T15:23:11.673Z,29.80
2017-12-01T15:25:42.966Z,35.80
2017-12-01T15:28:12.202Z,35.60
2017-12-01T15:30:42.804Z,33.07
2017-12-01T15:33:13.786Z,38.30
2017-12-01T15:35:43.869Z,37.30
2017-12-01T15:38:14.110Z,37.20
2017-12-01T15:40:44.604Z,46.17
2017-12-01T15:43:22.676Z,33.03
2017-12-01T15:45:52.326Z,42.43
2017-12-01T15:48:20.579Z,56.10
2017-12-01T15:50:50.395Z,48.33
2017-12-01T15:53:21.741Z,40.40
2017-12-01T15:55:53.690Z,42.90
2017-12-01T15:58:24.229Z,48.67
2017-12-01T16:00:55.254Z,44.77
2017-12-01T16:03:26.702Z,40.50
2017-12-01T16:05:54.427Z,39.07
2017-12-01T16:08:20.938Z,52.53
2017-12-01T16:10:48.199Z,50.50
2017-12-01T16:13:14.646Z,48.10
2017-12-01T16:15:41.861Z,48.60
2017-12-01T16:18:08.307Z,43.80
2017-12-01T16:20:34.969Z,42.27
2017-12-01T16:23:01.560Z,45.57
2017-12-01T16:25:28.018Z,50.37
2017-12-01T16:27:54.493Z,47.53
2017-12-01T16:30:21.037Z,51.00
2017-12-01T16:32:51.196Z,52.90
2017-12-01T16:35:14.031Z,42.57
2017-12-01T16:37:40.431Z,41.10
2017-12-01T16:40:07.829Z,45.03
2017-12-01T16:42:34.336Z,48.27
2017-12-01T16:45:01.723Z,47.67
2017-12-01T16:47:28.222Z,50.50
2017-12-01T16:49:55.424Z,54.47
2017-12-01T16:52:21.858Z,40.80
2017-12-01T16:54:48.356Z,48.73
2017-12-01T16:57:14.850Z,47.17
2017-12-01T16:59:41.335Z,48.80
2017-12-01T17:02:08.672Z,48.53
2017-12-01T17:04:35.213Z,47.27
2017-12-01T17:07:01.795Z,52.27
2017-12-01T17:09:28.299Z,47.20
2017-12-01T17:11:55.792Z,46.00
2017-12-01T17:14:22.265Z,49.63
2017-12-01T17:16:49.586Z,47.73
2017-12-01T17:19:16.097Z,40.63
2017-12-01T17:21:43.351Z,50.90
2017-12-01T17:24:09.787Z,50.50
2017-12-01T17:26:36.268Z,42.00
2017-12-01T17:29:02.959Z,42.30
2017-12-01T17:31:29.511Z,46.83
2017-12-01T17:33:56.114Z,45.73
2017-12-01T17:36:22.581Z,40.53
2017-12-01T17:38:49.076Z,47.23
2017-12-01T17:41:15.632Z,49.77
2017-12-01T17:43:42.124Z,53.30
2017-12-01T17:46:08.704Z,50.67
2017-12-01T17:48:35.212Z,48.73
2017-12-01T17:51:01.674Z,48.87
2017-12-01T17:53:28.113Z,44.90
2017-12-01T17:55:54.605Z,43.23
2017-12-01T17:58:21.075Z,48.27
2017-12-01T18:00:47.566Z,51.63
2017-12-01T18:03:14.193Z,52.77
2017-12-01T18:05:40.676Z,51.77
2017-12-01T18:08:07.638Z,50.23
2017-12-01T18:10:34.178Z,65.63
2017-12-01T18:13:01.360Z,48.03
2017-12-01T18:15:27.840Z,48.43
2017-12-01T18:17:54.408Z,50.07
2017-12-01T18:20:21.686Z,50.63
2017-12-01T18:22:48.166Z,64.03
2017-12-01T18:25:14.682Z,47.23
2017-12-01T18:27:41.195Z,56.97
2017-12-01T18:30:08.223Z,45.73
2017-12-01T18:32:34.659Z,57.30
2017-12-01T18:35:01.162Z,59.93
2017-12-01T18:37:28.462Z,49.93
2017-12-01T18:39:54.950Z,57.27
2017-12-01T18:42:21.533Z,52.00
2017-12-01T18:44:48.102Z,51.30
2017-12-01T18:47:14.627Z,57.93
2017-12-01T18:49:41.104Z,76.60
2017-12-01T18:52:07.747Z,63.33
2017-12-01T18:54:34.231Z,50.43
2017-12-01T18:57:00.939Z,49.73
2017-12-01T18:59:27.384Z,61.87
2017-12-01T19:01:53.890Z,49.93
2017-12-01T19:04:21.149Z,62.93
2017-12-01T19:06:47.641Z,54.90
2017-12-01T19:09:14.103Z,59.30
2017-12-01T19:11:40.530Z,60.63
2017-12-01T19:14:07.906Z,64.37
2017-12-01T19:16:34.346Z,69.40
2017-12-01T19:19:00.851Z,66.63
2017-12-01T19:21:27.411Z,84.37
2017-12-01T19:23:54.691Z,78.70
2017-12-01T19:26:21.165Z,76.00
2017-12-01T19:28:47.727Z,98.23
2017-12-01T19:31:14.971Z,88.63
2017-12-01T19:33:42.260Z,73.07
2017-12-01T19:36:09.514Z,78.33
2017-12-01T19:38:36.089Z,86.27
2017-12-01T19:41:03.095Z,58.47
2017-12-01T19:43:30.350Z,60.97
2017-12-01T19:45:56.826Z,73.10
2017-12-01T19:48:23.306Z,77.07
2017-12-01T19:50:49.811Z,71.73
2017-12-01T19:53:17.267Z,79.23
2017-12-01T19:55:44.416Z,81.03
2017-12-01T19:58:10.859Z,81.73
2017-12-01T20:00:37.323Z,80.90
2017-12-01T20:03:04.455Z,101.57
2017-12-01T20:05:30.946Z,94.50
2017-12-01T20:07:57.533Z,80.73
2017-12-01T20:10:23.955Z,115.07
2017-12-01T20:12:51.142Z,109.33
2017-12-01T20:15:17.593Z,90.97
2017-12-01T20:17:44.207Z,96.43
2017-12-01T20:20:10.693Z,79.80
2017-12-01T20:22:37.133Z,93.73
2017-12-01T20:25:03.989Z,103.17
2017-12-01T20:27:30.551Z,73.40
2017-12-01T20:29:57.010Z,91.37
2017-12-01T20:32:24.299Z,110.10
2017-12-01T20:34:50.809Z,116.77
2017-12-01T20:37:17.349Z,107.67
2017-12-01T20:39:43.794Z,95.17
2017-12-01T20:42:10.296Z,91.53
2017-12-01T20:44:36.792Z,97.87
2017-12-01T20:47:03.716Z,100.67
2017-12-01T20:49:30.262Z,88.47
2017-12-01T20:51:56.835Z,98.10
2017-12-01T20:54:23.406Z,106.93
2017-12-01T20:56:49.954Z,105.20
2017-12-01T20:59:16.445Z,136.70
2017-12-01T21:01:42.929Z,115.07
2017-12-01T21:04:10.162Z,128.03
2017-12-01T21:06:36.598Z,133.13
2017-12-01T21:09:03.987Z,157.63
2017-12-01T21:11:31.226Z,161.23
2017-12-01T21:13:57.815Z,139.93
2017-12-01T21:16:24.370Z,117.53
2017-12-01T21:18:51.106Z,129.57
2017-12-01T21:21:19.014Z,116.40
2017-12-01T21:23:45.808Z,133.32
2017-12-01T21:26:12.266Z,95.47
2017-12-01T21:28:38.823Z,124.17
2017-12-01T21:31:06.044Z,127.60
2017-12-01T21:33:32.528Z,119.27
2017-12-01T21:35:59.064Z,120.17
2017-12-01T21:38:25.620Z,133.23
2017-12-01T21:40:52.828Z,154.23
2017-12-01T21:43:19.319Z,133.33
2017-12-01T21:45:46.599Z,139.30
2017-12-01T21:48:13.112Z,156.73
2017-12-01T21:50:40.419Z,136.47
2017-12-01T21:53:06.856Z,152.53
2017-12-01T21:55:34.088Z,113.83
2017-12-01T21:58:01.279Z,119.70
2017-12-01T22:00:27.767Z,144.47
2017-12-01T22:02:54.192Z,143.60
2017-12-01T22:05:20.647Z,137.67
2017-12-01T22:07:47.030Z,135.97
2017-12-01T22:10:14.358Z,134.73
2017-12-01T22:12:41.556Z,129.17
2017-12-01T22:15:08.115Z,124.80
2017-12-01T22:17:35.372Z,169.00
2017-12-01T22:20:01.788Z,139.47
2017-12-01T22:22:28.521Z,142.37
2017-12-01T22:24:54.914Z,135.27
2017-12-01T22:27:21.388Z,151.20
2017-12-01T22:29:47.823Z,123.03
2017-12-01T22:32:14.298Z,131.82
2017-12-01T22:34:41.520Z,146.13
2017-12-01T22:37:07.999Z,109.30
2017-12-01T22:39:34.434Z,130.25
2017-12-01T22:42:00.920Z,101.90
2017-12-01T22:44:28.059Z,94.93
2017-12-01T22:46:54.516Z,95.00
2017-12-01T22:49:20.970Z,99.60
2017-12-01T22:51:48.139Z,126.40
2017-12-01T22:54:15.294Z,99.07
2017-12-01T22:56:41.775Z,98.50
2017-12-01T22:59:08.201Z,117.13
2017-12-01T23:01:34.701Z,113.97
2017-12-01T23:04:03.082Z,126.32
2017-12-01T23:06:30.336Z,103.15
2017-12-01T23:08:56.805Z,123.47
2017-12-01T23:11:24.106Z,117.85
2017-12-01T23:13:50.652Z,157.15
2017-12-01T23:16:17.115Z,181.25
2017-12-01T23:18:43.571Z,217.95
2017-12-01T23:21:10.764Z,360.83
2017-12-01T23:23:37.285Z,425.87
2017-12-01T23:26:04.391Z,456.30
2017-12-01T23:28:31.107Z,425.70
2017-12-01T23:30:57.550Z,485.87
2017-12-01T23:33:24.126Z,415.08
2017-12-01T23:35:50.541Z,428.88
2017-12-01T23:38:16.961Z,424.95
2017-12-01T23:40:43.374Z,312.77
2017-12-01T23:43:09.868Z,434.58
2017-12-01T23:45:36.278Z,468.55
2017-12-01T23:48:02.961Z,549.97
2017-12-01T23:50:29.813Z,452.60
2017-12-01T23:52:56.257Z,487.38
2017-12-01T23:55:22.842Z,196.95
2017-12-01T23:57:49.301Z,333.70
